Time;durP1;ratioP1;P1;durP2;ratioP2;P2;SDS_P1;SDS_P2;PMS_P1;PMS_P2;Temp;Humidity;BMP_temperature;BMP_pressure;BME280_temperature;BME280_humidity;BME280_pressure;Samples;Min_cycle;Max_cycle;Signal;HPM_P1;HPM_P2
2023/07/21 00:02:08;;;;;;;7.07;3.00;;;;;;;;;;5088749;28;20170;-65
2023/07/21 00:04:34;;;;;;;6.18;3.42;;;;;;;;;;5092535;28;20043;-65
2023/07/21 00:07:00;;;;;;;8.27;3.30;;;;;;;;;;5091208;28;20107;-65
2023/07/21 00:09:25;;;;;;;6.18;3.15;;;;;;;;;;5092028;28;20126;-65
2023/07/21 00:11:50;;;;;;;6.45;3.10;;;;;;;;;;5092300;28;20019;-65
2023/07/21 00:14:16;;;;;;;6.47;3.50;;;;;;;;;;5089909;28;20025;-66
2023/07/21 00:16:42;;;;;;;9.50;3.38;;;;;;;;;;5092906;28;20020;-65
2023/07/21 00:19:07;;;;;;;6.40;3.35;;;;;;;;;;5091763;28;20099;-65
2023/07/21 00:21:34;;;;;;;5.10;3.05;;;;;;;;;;5093619;28;20673;-66
2023/07/21 00:23:59;;;;;;;6.18;3.70;;;;;;;;;;5089558;28;20008;-65
2023/07/21 00:26:24;;;;;;;6.82;3.45;;;;;;;;;;5092940;28;20024;-66
2023/07/21 00:28:50;;;;;;;7.13;3.67;;;;;;;;;;5090272;28;20020;-65
2023/07/21 00:31:15;;;;;;;6.60;3.50;;;;;;;;;;5093095;28;20105;-65
2023/07/21 00:33:40;;;;;;;8.18;3.72;;;;;;;;;;5093238;28;20099;-66
2023/07/21 00:36:06;;;;;;;7.63;3.53;;;;;;;;;;5092896;28;20028;-65
2023/07/21 00:38:31;;;;;;;7.05;3.70;;;;;;;;;;5089901;28;20043;-66
2023/07/21 00:40:56;;;;;;;5.85;3.50;;;;;;;;;;5091443;28;20012;-65
2023/07/21 00:43:22;;;;;;;7.00;4.13;;;;;;;;;;5089696;28;21476;-66
2023/07/21 00:45:47;;;;;;;9.32;4.53;;;;;;;;;;5093485;28;20406;-66
2023/07/21 00:48:13;;;;;;;8.80;4.45;;;;;;;;;;5091132;28;20098;-66
2023/07/21 00:50:43;;;;;;;9.07;4.70;;;;;;;;;;5090809;28;20031;-66
2023/07/21 00:53:10;;;;;;;8.55;5.07;;;;;;;;;;5091915;28;20020;-66
2023/07/21 00:55:35;;;;;;;8.88;4.80;;;;;;;;;;5088860;28;20033;-66
2023/07/21 00:58:00;;;;;;;7.57;4.63;;;;;;;;;;5089768;28;20027;-65
2023/07/21 01:03:30;;;;;;;9.23;5.23;;;;;;;;;;5092898;22;20072;-63
2023/07/21 01:05:57;;;;;;;9.73;5.10;;;;;;;;;;5067478;28;20456;-67
2023/07/21 01:08:23;;;;;;;8.07;4.83;;;;;;;;;;5073548;28;20374;-67
2023/07/21 01:10:48;;;;;;;16.70;5.30;;;;;;;;;;5055023;28;20104;-67
2023/07/21 01:13:14;;;;;;;8.37;5.00;;;;;;;;;;5072489;28;20534;-67
2023/07/21 01:15:44;;;;;;;11.47;5.30;;;;;;;;;;5069533;28;20025;-67
2023/07/21 01:18:10;;;;;;;10.23;5.00;;;;;;;;;;5070033;28;20032;-67
2023/07/21 01:20:36;;;;;;;10.70;5.00;;;;;;;;;;5074386;28;20086;-67
2023/07/21 01:23:06;;;;;;;8.30;5.00;;;;;;;;;;5071288;28;20054;-67
2023/07/21 01:25:33;;;;;;;8.97;4.93;;;;;;;;;;5072892;28;20489;-67
2023/07/21 01:27:59;;;;;;;9.57;4.97;;;;;;;;;;5071897;28;20353;-67
2023/07/21 01:30:26;;;;;;;8.27;4.80;;;;;;;;;;5084517;28;20062;-67
2023/07/21 01:32:52;;;;;;;9.57;5.07;;;;;;;;;;5069917;28;20090;-67
2023/07/21 01:35:18;;;;;;;8.82;5.40;;;;;;;;;;5063360;28;20561;-67
2023/07/21 01:37:44;;;;;;;8.40;5.20;;;;;;;;;;5064716;28;20025;-67
2023/07/21 01:40:11;;;;;;;9.45;5.15;;;;;;;;;;5070920;28;20035;-68
2023/07/21 01:42:37;;;;;;;11.45;5.65;;;;;;;;;;5071206;28;20077;-68
2023/07/21 01:45:02;;;;;;;9.48;5.18;;;;;;;;;;5086161;22;20060;-92
2023/07/21 01:47:28;;;;;;;10.45;5.45;;;;;;;;;;5112318;28;20034;-91
2023/07/21 01:49:53;;;;;;;10.43;5.63;;;;;;;;;;5097070;28;20038;-93
2023/07/21 01:52:18;;;;;;;9.32;5.13;;;;;;;;;;5114203;28;20477;-93
2023/07/21 01:54:51;;;;;;;9.90;4.32;;;;;;;;;;5109927;27;20032;-93
2023/07/21 01:57:37;;;;;;;7.28;4.50;;;;;;;;;;5114224;28;20047;-93
2023/07/21 02:00:04;;;;;;;8.38;5.30;;;;;;;;;;5111441;28;20062;-92
2023/07/21 02:02:30;;;;;;;10.60;6.27;;;;;;;;;;5112194;28;20094;-92
2023/07/21 02:04:55;;;;;;;8.77;5.70;;;;;;;;;;5111117;28;20043;-91
2023/07/21 02:07:20;;;;;;;15.30;6.70;;;;;;;;;;5095897;28;20061;-91
2023/07/21 02:09:48;;;;;;;13.00;6.35;;;;;;;;;;5113929;28;20024;-91
2023/07/21 02:12:13;;;;;;;10.23;6.53;;;;;;;;;;5096723;28;20051;-92
2023/07/21 02:14:39;;;;;;;13.35;6.85;;;;;;;;;;5112485;28;20493;-91
2023/07/21 02:17:04;;;;;;;12.75;7.30;;;;;;;;;;5114197;28;20027;-91
2023/07/21 02:19:29;;;;;;;15.63;7.17;;;;;;;;;;5100975;28;20016;-91
2023/07/21 02:21:55;;;;;;;11.90;6.43;;;;;;;;;;5111821;28;20019;-94
2023/07/21 02:24:20;;;;;;;12.50;7.10;;;;;;;;;;5113955;28;20098;-91
2023/07/21 02:26:45;;;;;;;11.13;6.17;;;;;;;;;;5113389;28;20023;-92
2023/07/21 02:29:10;;;;;;;14.53;6.70;;;;;;;;;;5114447;28;20027;-92
2023/07/21 02:31:36;;;;;;;13.73;6.90;;;;;;;;;;5094135;28;20031;-92
2023/07/21 02:34:01;;;;;;;11.68;6.75;;;;;;;;;;5113289;28;20028;-92
2023/07/21 02:36:26;;;;;;;17.77;6.63;;;;;;;;;;5091916;28;20030;-92
2023/07/21 02:38:52;;;;;;;14.43;7.30;;;;;;;;;;5088987;28;20027;-92
2023/07/21 02:41:17;;;;;;;17.08;7.53;;;;;;;;;;5104483;28;20058;-92
2023/07/21 02:43:42;;;;;;;14.63;7.35;;;;;;;;;;5101659;28;20468;-92
2023/07/21 02:46:07;;;;;;;12.70;7.18;;;;;;;;;;5106932;28;20124;-93
2023/07/21 02:48:36;;;;;;;13.70;7.95;;;;;;;;;;5102965;28;20034;-92
2023/07/21 02:51:01;;;;;;;14.77;7.05;;;;;;;;;;5101179;28;20019;-91
2023/07/21 02:53:27;;;;;;;12.80;7.55;;;;;;;;;;5104261;28;20024;-91
2023/07/21 02:55:52;;;;;;;15.23;7.33;;;;;;;;;;5112082;28;20048;-93
2023/07/21 02:58:26;;;;;;;13.65;7.32;;;;;;;;;;5106996;28;20821;-95
2023/07/21 03:00:51;;;;;;;14.63;7.28;;;;;;;;;;5108714;28;20023;-92
2023/07/21 03:03:16;;;;;;;13.90;7.17;;;;;;;;;;5100579;28;20396;-93
2023/07/21 03:05:41;;;;;;;13.35;7.80;;;;;;;;;;5112776;28;20156;-93
2023/07/21 03:08:07;;;;;;;15.63;7.93;;;;;;;;;;5115151;28;20031;-93
2023/07/21 03:10:34;;;;;;;13.30;8.18;;;;;;;;;;5111675;28;20028;-93
2023/07/21 03:12:59;;;;;;;14.15;8.02;;;;;;;;;;5096839;28;20398;-93
2023/07/21 03:15:25;;;;;;;15.87;7.93;;;;;;;;;;5105077;28;20028;-92
2023/07/21 03:17:50;;;;;;;14.67;8.13;;;;;;;;;;5113703;28;20011;-93
2023/07/21 03:20:15;;;;;;;14.57;7.50;;;;;;;;;;5117486;28;20103;-92
2023/07/21 03:22:44;;;;;;;20.53;8.10;;;;;;;;;;5113018;28;20020;-94
2023/07/21 03:25:10;;;;;;;15.10;8.17;;;;;;;;;;5114150;28;20416;-93
2023/07/21 03:27:36;;;;;;;14.60;7.85;;;;;;;;;;5114335;28;20044;-92
2023/07/21 03:30:03;;;;;;;19.63;8.98;;;;;;;;;;5100499;28;20429;-93
2023/07/21 03:32:29;;;;;;;16.70;8.60;;;;;;;;;;5111472;28;20044;-94
2023/07/21 03:34:54;;;;;;;17.30;8.50;;;;;;;;;;5107435;28;20497;-93
2023/07/21 03:37:23;;;;;;;16.90;8.23;;;;;;;;;;5105465;28;20016;-94
2023/07/21 03:39:48;;;;;;;14.23;8.03;;;;;;;;;;5114164;28;20019;-93
2023/07/21 03:42:14;;;;;;;15.38;7.28;;;;;;;;;;5103660;28;20016;-93
2023/07/21 03:44:39;;;;;;;17.07;8.63;;;;;;;;;;5104338;28;20035;-93
2023/07/21 03:47:04;;;;;;;14.03;8.57;;;;;;;;;;5111801;28;20076;-94
2023/07/21 03:49:30;;;;;;;17.30;8.33;;;;;;;;;;5113862;28;20052;-93
2023/07/21 03:51:55;;;;;;;15.75;8.50;;;;;;;;;;5121651;27;20008;-93
2023/07/21 03:54:20;;;;;;;13.65;7.72;;;;;;;;;;5137228;27;20084;-94
2023/07/21 03:56:46;;;;;;;15.30;8.40;;;;;;;;;;5134788;27;20075;-93
2023/07/21 03:59:11;;;;;;;14.20;7.78;;;;;;;;;;5136044;27;20008;-93
2023/07/21 04:01:37;;;;;;;13.47;7.63;;;;;;;;;;5128612;28;20023;-93
2023/07/21 04:04:02;;;;;;;14.63;7.70;;;;;;;;;;5129725;27;20019;-93
2023/07/21 04:06:27;;;;;;;15.07;7.80;;;;;;;;;;5113759;27;20042;-94
2023/07/21 04:08:53;;;;;;;13.53;7.37;;;;;;;;;;5126663;27;20116;-93
2023/07/21 04:11:19;;;;;;;16.75;8.13;;;;;;;;;;5135049;27;20033;-91
2023/07/21 04:13:44;;;;;;;16.07;8.40;;;;;;;;;;5132310;27;20012;-94
2023/07/21 04:16:11;;;;;;;15.05;8.13;;;;;;;;;;5132077;27;20030;-93
2023/07/21 04:18:37;;;;;;;13.63;7.25;;;;;;;;;;5132257;27;20071;-95
2023/07/21 04:21:03;;;;;;;16.70;8.25;;;;;;;;;;5139010;27;20026;-94
2023/07/21 04:23:28;;;;;;;14.98;8.32;;;;;;;;;;5140358;27;20016;-93
2023/07/21 04:25:53;;;;;;;19.48;7.82;;;;;;;;;;5115301;27;20088;-94
2023/07/21 04:28:18;;;;;;;12.00;7.03;;;;;;;;;;5132694;27;20079;-94
2023/07/21 04:30:44;;;;;;;11.38;7.13;;;;;;;;;;5133981;27;20019;-93
2023/07/21 04:33:09;;;;;;;10.10;6.78;;;;;;;;;;5134211;27;20010;-94
2023/07/21 04:35:34;;;;;;;9.88;6.38;;;;;;;;;;5109751;28;20043;-94
2023/07/21 04:38:00;;;;;;;12.57;6.43;;;;;;;;;;5110965;28;20037;-95
2023/07/21 04:40:25;;;;;;;10.50;6.47;;;;;;;;;;5136724;27;20015;-93
2023/07/21 04:42:50;;;;;;;13.40;6.88;;;;;;;;;;5120819;27;20010;-93
2023/07/21 04:45:16;;;;;;;11.75;6.50;;;;;;;;;;5129793;27;20047;-94
2023/07/21 04:47:41;;;;;;;12.70;6.63;;;;;;;;;;5118582;27;20011;-94
2023/07/21 04:50:07;;;;;;;12.50;6.78;;;;;;;;;;5140407;27;20033;-93
2023/07/21 04:52:32;;;;;;;12.52;6.78;;;;;;;;;;5133713;27;20028;-88
2023/07/21 04:54:57;;;;;;;11.73;6.68;;;;;;;;;;5131240;27;20027;-88
2023/07/21 04:57:22;;;;;;;10.05;6.22;;;;;;;;;;5129438;27;20030;-87
2023/07/21 04:59:48;;;;;;;10.68;6.28;;;;;;;;;;5126038;27;20015;-88
2023/07/21 05:02:13;;;;;;;11.00;5.95;;;;;;;;;;5129883;27;20027;-88
2023/07/21 05:04:39;;;;;;;11.10;6.03;;;;;;;;;;5112068;28;20034;-89
2023/07/21 05:07:05;;;;;;;10.65;6.00;;;;;;;;;;5130835;27;20016;-88
2023/07/21 05:09:31;;;;;;;8.90;5.70;;;;;;;;;;5134742;27;20041;-88
2023/07/21 05:11:57;;;;;;;8.80;5.70;;;;;;;;;;5117588;27;20003;-89
2023/07/21 05:14:22;;;;;;;8.88;5.97;;;;;;;;;;5130196;27;20080;-89
2023/07/21 05:16:48;;;;;;;11.43;6.32;;;;;;;;;;5130093;27;20026;-89
2023/07/21 05:19:13;;;;;;;12.30;5.15;;;;;;;;;;5134986;27;20028;-88
2023/07/21 05:21:38;;;;;;;8.23;4.75;;;;;;;;;;5123271;27;20054;-88
2023/07/21 05:24:04;;;;;;;10.15;5.05;;;;;;;;;;5130918;27;20011;-89
2023/07/21 05:26:29;;;;;;;6.53;4.40;;;;;;;;;;5115807;27;20075;-88
2023/07/21 05:28:55;;;;;;;7.82;4.80;;;;;;;;;;5130414;27;20042;-89
2023/07/21 05:31:23;;;;;;;8.23;4.70;;;;;;;;;;5128998;27;20065;-88
2023/07/21 05:33:49;;;;;;;7.03;4.20;;;;;;;;;;5111981;27;20012;-88
2023/07/21 05:36:15;;;;;;;7.70;4.65;;;;;;;;;;5131890;27;20042;-90
2023/07/21 05:38:40;;;;;;;6.80;4.32;;;;;;;;;;5108343;27;20010;-88
2023/07/21 05:41:05;;;;;;;6.25;3.67;;;;;;;;;;5125518;27;20032;-89
2023/07/21 05:43:31;;;;;;;7.07;4.03;;;;;;;;;;5134259;27;21172;-91
2023/07/21 05:45:57;;;;;;;6.53;3.92;;;;;;;;;;5119208;27;20062;-89
2023/07/21 05:48:24;;;;;;;6.38;3.70;;;;;;;;;;5130912;27;20024;-89
2023/07/21 05:50:53;;;;;;;7.20;3.55;;;;;;;;;;5127090;27;20031;-89
2023/07/21 05:53:19;;;;;;;6.03;3.67;;;;;;;;;;5109926;27;20085;-89
2023/07/21 05:55:45;;;;;;;7.72;3.30;;;;;;;;;;5101956;28;20125;-90
2023/07/21 05:58:10;;;;;;;5.60;3.40;;;;;;;;;;5103500;28;20102;-89
2023/07/21 06:00:39;;;;;;;5.43;2.92;;;;;;;;;;5112600;28;20039;-90
2023/07/21 06:03:04;;;;;;;7.38;3.13;;;;;;;;;;5105339;28;20760;-89
2023/07/21 06:05:30;;;;;;;5.50;3.30;;;;;;;;;;5111815;28;20026;-89
2023/07/21 06:07:56;;;;;;;4.97;2.70;;;;;;;;;;5109084;28;20043;-89
2023/07/21 06:10:21;;;;;;;5.38;2.50;;;;;;;;;;5108940;28;20023;-88
2023/07/21 06:12:47;;;;;;;5.35;2.70;;;;;;;;;;5109223;28;20027;-89
2023/07/21 06:15:13;;;;;;;6.47;2.30;;;;;;;;;;5096770;28;20051;-89
2023/07/21 06:17:39;;;;;;;4.15;2.25;;;;;;;;;;5102370;28;20023;-91
2023/07/21 06:20:05;;;;;;;6.05;2.42;;;;;;;;;;5086172;28;20016;-91
2023/07/21 06:22:31;;;;;;;5.40;2.28;;;;;;;;;;5104128;28;20022;-88
2023/07/21 06:24:56;;;;;;;3.95;1.88;;;;;;;;;;5086845;28;20107;-93
2023/07/21 06:27:21;;;;;;;3.58;1.67;;;;;;;;;;5094525;28;20009;-89
2023/07/21 06:29:47;;;;;;;3.22;1.60;;;;;;;;;;5092737;28;20020;-91
2023/07/21 06:32:12;;;;;;;3.28;1.80;;;;;;;;;;5112648;28;20080;-90
2023/07/21 06:34:37;;;;;;;3.72;1.73;;;;;;;;;;5091179;28;20076;-90
2023/07/21 06:37:02;;;;;;;4.57;1.70;;;;;;;;;;5101711;28;20133;-89
2023/07/21 06:39:28;;;;;;;3.72;1.73;;;;;;;;;;5097224;28;20029;-90
2023/07/21 06:41:53;;;;;;;3.55;1.80;;;;;;;;;;5113804;28;20099;-91
2023/07/21 06:44:20;;;;;;;3.35;1.65;;;;;;;;;;5108576;28;20031;-91
2023/07/21 06:46:47;;;;;;;3.25;1.67;;;;;;;;;;5106880;28;20075;-90
2023/07/21 06:49:14;;;;;;;3.67;1.45;;;;;;;;;;5109923;28;20024;-90
2023/07/21 06:51:42;;;;;;;3.58;1.40;;;;;;;;;;5108089;28;20103;-90
2023/07/21 06:54:08;;;;;;;3.97;1.48;;;;;;;;;;5101933;28;20080;-90
2023/07/21 06:56:33;;;;;;;2.88;1.35;;;;;;;;;;5097728;28;20024;-90
2023/07/21 06:59:01;;;;;;;3.05;1.42;;;;;;;;;;5088864;28;20020;-93
2023/07/21 07:01:27;;;;;;;2.90;1.50;;;;;;;;;;5118802;28;20027;-93
2023/07/21 07:03:52;;;;;;;3.42;1.63;;;;;;;;;;5134218;28;20083;-94
2023/07/21 07:06:18;;;;;;;2.78;1.30;;;;;;;;;;5131252;28;20082;-93
2023/07/21 07:08:43;;;;;;;2.92;1.38;;;;;;;;;;5103285;28;20024;-93
2023/07/21 07:11:11;;;;;;;3.20;1.30;;;;;;;;;;5129517;28;20094;-93
2023/07/21 07:13:38;;;;;;;3.08;1.40;;;;;;;;;;5132998;28;20063;-93
2023/07/21 07:16:07;;;;;;;2.72;1.23;;;;;;;;;;5137380;28;20054;-94
2023/07/21 07:18:40;;;;;;;2.67;1.40;;;;;;;;;;5136614;28;20023;-93
2023/07/21 07:21:39;;;;;;;3.53;1.67;;;;;;;;;;5133578;28;20008;-94
2023/07/21 07:24:18;;;;;;;3.70;1.35;;;;;;;;;;5138140;28;20035;-94
2023/07/21 07:26:44;;;;;;;3.20;1.40;;;;;;;;;;5102092;22;20105;-59
2023/07/21 07:29:09;;;;;;;2.00;1.20;;;;;;;;;;5091618;28;20028;-58
2023/07/21 07:31:36;;;;;;;2.78;1.23;;;;;;;;;;5097629;28;20016;-59
2023/07/21 07:34:02;;;;;;;3.83;1.30;;;;;;;;;;5091494;28;21374;-58
2023/07/21 07:36:27;;;;;;;3.38;1.67;;;;;;;;;;5101962;28;20031;-59
2023/07/21 07:38:53;;;;;;;3.05;1.20;;;;;;;;;;5095655;28;20361;-59
2023/07/21 07:41:18;;;;;;;2.28;1.20;;;;;;;;;;5088260;28;20425;-58
2023/07/21 07:43:44;;;;;;;3.63;1.30;;;;;;;;;;5093434;28;20016;-58
2023/07/21 07:46:09;;;;;;;2.33;1.08;;;;;;;;;;5084859;28;20572;-58
2023/07/21 07:48:34;;;;;;;2.20;1.08;;;;;;;;;;5071790;28;20436;-59
2023/07/21 07:51:07;;;;;;;2.67;1.10;;;;;;;;;;5073361;28;20054;-59
2023/07/21 07:53:32;;;;;;;2.00;1.00;;;;;;;;;;5057526;28;20062;-58
2023/07/21 07:55:58;;;;;;;2.25;1.10;;;;;;;;;;5094169;28;20043;-59
2023/07/21 07:58:23;;;;;;;3.17;1.30;;;;;;;;;;5082884;28;20019;-59
2023/07/21 08:00:49;;;;;;;2.17;1.00;;;;;;;;;;5069917;28;20039;-59
2023/07/21 08:03:14;;;;;;;2.55;1.00;;;;;;;;;;5073954;28;20421;-59
2023/07/21 08:05:40;;;;;;;3.20;1.33;;;;;;;;;;5072355;28;20357;-59
2023/07/21 08:08:06;;;;;;;3.08;1.52;;;;;;;;;;5070811;28;20043;-59
2023/07/21 08:10:32;;;;;;;3.40;1.60;;;;;;;;;;5074577;28;20036;-59
2023/07/21 08:12:59;;;;;;;3.05;1.35;;;;;;;;;;5073757;28;20012;-59
2023/07/21 08:15:25;;;;;;;3.35;1.50;;;;;;;;;;5071173;28;20024;-59
2023/07/21 08:17:51;;;;;;;3.75;1.55;;;;;;;;;;5074070;28;20017;-60
2023/07/21 08:20:18;;;;;;;4.28;1.50;;;;;;;;;;5071931;28;20464;-60
2023/07/21 08:22:44;;;;;;;3.53;1.85;;;;;;;;;;5074813;28;20545;-60
2023/07/21 08:25:09;;;;;;;4.03;1.80;;;;;;;;;;5072529;28;20135;-61
2023/07/21 08:27:35;;;;;;;4.10;1.80;;;;;;;;;;5073458;28;20035;-61
2023/07/21 08:30:00;;;;;;;3.80;2.00;;;;;;;;;;5071779;28;20579;-60
2023/07/21 08:32:26;;;;;;;3.33;1.63;;;;;;;;;;5085731;28;20016;-60
2023/07/21 08:34:51;;;;;;;3.85;2.00;;;;;;;;;;5071267;28;20017;-61
2023/07/21 08:37:16;;;;;;;5.25;2.15;;;;;;;;;;5070779;28;20411;-61
2023/07/21 08:39:41;;;;;;;5.20;2.20;;;;;;;;;;5081889;28;20008;-61
2023/07/21 08:42:10;;;;;;;4.65;2.45;;;;;;;;;;5077077;28;20070;-59
2023/07/21 08:44:36;;;;;;;4.00;2.33;;;;;;;;;;5073306;28;20099;-59
2023/07/21 08:47:02;;;;;;;4.03;2.20;;;;;;;;;;5082328;28;20471;-58
2023/07/21 08:49:27;;;;;;;5.05;2.70;;;;;;;;;;5083854;28;20024;-59
2023/07/21 08:51:52;;;;;;;4.93;2.38;;;;;;;;;;5079740;28;20418;-59
2023/07/21 08:54:17;;;;;;;4.25;2.08;;;;;;;;;;5071777;28;20091;-59
2023/07/21 08:56:42;;;;;;;3.63;2.13;;;;;;;;;;5069485;28;20025;-59
2023/07/21 08:59:08;;;;;;;5.40;2.40;;;;;;;;;;5071504;28;20024;-58
2023/07/21 09:01:33;;;;;;;4.13;2.38;;;;;;;;;;5069641;28;20013;-58
2023/07/21 09:03:58;;;;;;;4.32;2.50;;;;;;;;;;5072740;28;20047;-59
2023/07/21 09:06:23;;;;;;;5.28;2.50;;;;;;;;;;5070956;28;20025;-59
2023/07/21 09:08:49;;;;;;;6.43;2.60;;;;;;;;;;5072317;28;20020;-59
2023/07/21 09:11:15;;;;;;;4.38;2.40;;;;;;;;;;5066170;28;20162;-59
2023/07/21 09:13:49;;;;;;;4.85;2.00;;;;;;;;;;5076053;28;20052;-59
2023/07/21 09:16:15;;;;;;;4.22;2.35;;;;;;;;;;5072813;28;20514;-59
2023/07/21 09:18:41;;;;;;;3.42;2.13;;;;;;;;;;5073017;28;20458;-59
2023/07/21 09:21:07;;;;;;;3.95;2.35;;;;;;;;;;5069805;28;20024;-61
2023/07/21 09:23:32;;;;;;;4.82;2.50;;;;;;;;;;5072603;28;20456;-62
2023/07/21 09:25:59;;;;;;;4.35;2.55;;;;;;;;;;5060816;28;20382;-62
2023/07/21 09:28:43;;;;;;;4.18;2.95;;;;;;;;;;5056349;28;20573;-64
2023/07/21 09:31:09;;;;;;;5.00;3.40;;;;;;;;;;5052789;28;20027;-64
2023/07/21 09:33:38;;;;;;;6.25;3.72;;;;;;;;;;5065977;28;20451;-63
2023/07/21 09:36:07;;;;;;;5.18;4.03;;;;;;;;;;5052204;28;20021;-62
2023/07/21 09:38:33;;;;;;;5.90;4.07;;;;;;;;;;5047927;28;20021;-62
2023/07/21 09:41:00;;;;;;;5.45;4.53;;;;;;;;;;5053038;28;20013;-62
2023/07/21 09:43:25;;;;;;;7.85;5.18;;;;;;;;;;5047451;28;20096;-61
2023/07/21 09:45:53;;;;;;;6.32;4.70;;;;;;;;;;5048278;28;20104;-62
2023/07/21 09:48:19;;;;;;;6.32;4.68;;;;;;;;;;5052205;28;20028;-62
2023/07/21 09:50:44;;;;;;;6.18;3.90;;;;;;;;;;5051705;28;20441;-62
2023/07/21 09:53:11;;;;;;;5.25;3.72;;;;;;;;;;5049997;28;20056;-62
2023/07/21 09:55:40;;;;;;;5.07;3.75;;;;;;;;;;5049073;28;20372;-63
2023/07/21 09:58:07;;;;;;;5.40;3.75;;;;;;;;;;5051055;28;20013;-62
2023/07/21 10:00:33;;;;;;;4.93;3.72;;;;;;;;;;5051107;28;20049;-61
2023/07/21 10:02:59;;;;;;;5.55;3.33;;;;;;;;;;5049154;28;20063;-61
2023/07/21 10:05:24;;;;;;;5.43;3.50;;;;;;;;;;5050595;28;20013;-61
2023/07/21 10:07:50;;;;;;;4.32;3.30;;;;;;;;;;5050726;28;20067;-62
2023/07/21 10:10:16;;;;;;;4.28;3.28;;;;;;;;;;5052206;28;20029;-62
2023/07/21 10:12:42;;;;;;;6.57;4.03;;;;;;;;;;5050617;28;20095;-62
2023/07/21 10:15:14;;;;;;;7.10;4.10;;;;;;;;;;5032684;28;20029;-63
2023/07/21 10:17:42;;;;;;;6.00;4.60;;;;;;;;;;5049045;28;20104;-63
2023/07/21 10:20:08;;;;;;;5.72;3.80;;;;;;;;;;5033841;28;20021;-62
2023/07/21 10:22:33;;;;;;;5.93;3.65;;;;;;;;;;5051763;28;20036;-61
2023/07/21 10:24:59;;;;;;;4.25;3.15;;;;;;;;;;5051805;28;20021;-61
2023/07/21 10:27:26;;;;;;;4.80;3.75;;;;;;;;;;5070181;28;20052;-60
2023/07/21 10:29:52;;;;;;;4.53;3.53;;;;;;;;;;5070860;28;20016;-60
2023/07/21 10:32:18;;;;;;;4.32;3.17;;;;;;;;;;5071183;28;20027;-60
2023/07/21 10:34:43;;;;;;;5.03;3.58;;;;;;;;;;5071117;28;20029;-60
2023/07/21 10:37:09;;;;;;;5.22;3.30;;;;;;;;;;5070704;28;20036;-60
2023/07/21 10:39:41;;;;;;;5.38;3.17;;;;;;;;;;5070151;28;20020;-61
2023/07/21 10:42:07;;;;;;;4.35;2.85;;;;;;;;;;5075126;28;20016;-61
2023/07/21 10:44:39;;;;;;;6.55;2.70;;;;;;;;;;5069272;28;20027;-60
2023/07/21 10:47:10;;;;;;;3.38;1.83;;;;;;;;;;5068701;28;20530;-61
2023/07/21 10:49:35;;;;;;;3.67;2.50;;;;;;;;;;5070874;28;20017;-60
2023/07/21 10:52:00;;;;;;;3.70;1.95;;;;;;;;;;5070048;28;20309;-61
2023/07/21 10:54:25;;;;;;;3.85;2.08;;;;;;;;;;5078572;28;20089;-61
2023/07/21 10:56:51;;;;;;;3.15;2.30;;;;;;;;;;5069933;28;20024;-61
2023/07/21 10:59:19;;;;;;;3.55;2.30;;;;;;;;;;5070436;28;20059;-62
2023/07/21 11:01:46;;;;;;;3.22;2.38;;;;;;;;;;5067455;28;20457;-61
2023/07/21 11:04:13;;;;;;;4.18;2.30;;;;;;;;;;5075376;28;20345;-61
2023/07/21 11:06:42;;;;;;;3.78;2.20;;;;;;;;;;5071754;28;20472;-62
2023/07/21 11:09:11;;;;;;;4.30;2.65;;;;;;;;;;5070248;28;20460;-61
2023/07/21 11:11:38;;;;;;;4.53;2.55;;;;;;;;;;5071230;28;20080;-62
2023/07/21 11:14:03;;;;;;;4.28;2.75;;;;;;;;;;5071698;28;20020;-62
2023/07/21 11:16:28;;;;;;;6.30;3.10;;;;;;;;;;5074656;28;20016;-62
2023/07/21 11:18:54;;;;;;;3.97;2.67;;;;;;;;;;5076628;28;20020;-62
2023/07/21 11:21:19;;;;;;;5.18;2.83;;;;;;;;;;5071995;28;20024;-62
2023/07/21 11:23:45;;;;;;;4.15;2.88;;;;;;;;;;5089946;28;20031;-62
2023/07/21 11:26:11;;;;;;;4.00;2.60;;;;;;;;;;5083537;28;20037;-62
2023/07/21 11:28:40;;;;;;;3.80;2.53;;;;;;;;;;5070507;28;20021;-62
2023/07/21 11:31:12;;;;;;;4.38;3.20;;;;;;;;;;5075733;28;20507;-62
2023/07/21 11:33:42;;;;;;;4.15;3.13;;;;;;;;;;5075488;28;20095;-62
2023/07/21 11:36:10;;;;;;;4.13;2.90;;;;;;;;;;5093371;28;20401;-62
2023/07/21 11:38:36;;;;;;;3.75;2.80;;;;;;;;;;5089669;28;20020;-62
2023/07/21 11:41:03;;;;;;;3.72;2.60;;;;;;;;;;5075448;28;20446;-62
2023/07/21 11:43:28;;;;;;;3.90;2.60;;;;;;;;;;5075187;28;20012;-62
2023/07/21 11:45:54;;;;;;;3.75;2.25;;;;;;;;;;5084321;28;20361;-62
2023/07/21 11:48:20;;;;;;;3.55;2.00;;;;;;;;;;5080479;28;20381;-62
2023/07/21 11:50:52;;;;;;;3.05;1.75;;;;;;;;;;5075479;28;20048;-62
2023/07/21 11:53:18;;;;;;;3.15;1.80;;;;;;;;;;5078765;28;20047;-62
2023/07/21 11:55:44;;;;;;;3.10;1.80;;;;;;;;;;5088599;28;20020;-62
2023/07/21 11:58:11;;;;;;;2.97;1.52;;;;;;;;;;5090057;28;20526;-61
2023/07/21 12:00:36;;;;;;;3.85;1.50;;;;;;;;;;5071872;28;20028;-62
2023/07/21 12:03:01;;;;;;;2.92;1.50;;;;;;;;;;5075193;28;20017;-62
2023/07/21 12:05:27;;;;;;;2.55;1.65;;;;;;;;;;5075452;28;20020;-62
2023/07/21 12:07:52;;;;;;;1.95;1.30;;;;;;;;;;5078323;28;21411;-62
2023/07/21 12:10:18;;;;;;;2.13;1.33;;;;;;;;;;5090087;28;20016;-63
2023/07/21 12:12:43;;;;;;;2.40;1.27;;;;;;;;;;5075118;28;20028;-63
2023/07/21 12:15:11;;;;;;;4.50;1.67;;;;;;;;;;5077198;28;20058;-62
2023/07/21 12:17:37;;;;;;;2.70;1.60;;;;;;;;;;5074585;28;20029;-65
2023/07/21 12:20:04;;;;;;;4.13;1.60;;;;;;;;;;5068540;28;20477;-63
2023/07/21 12:22:29;;;;;;;2.30;1.33;;;;;;;;;;5074493;28;20547;-63
2023/07/21 12:24:54;;;;;;;2.47;1.42;;;;;;;;;;5077315;28;20043;-63
2023/07/21 12:27:19;;;;;;;2.90;1.42;;;;;;;;;;5092297;28;20376;-63
2023/07/21 12:29:45;;;;;;;2.67;1.30;;;;;;;;;;5080556;28;20551;-65
2023/07/21 12:32:10;;;;;;;2.60;1.38;;;;;;;;;;5072977;28;20377;-65
2023/07/21 12:34:35;;;;;;;3.65;1.50;;;;;;;;;;5073680;28;20017;-65
2023/07/21 12:37:00;;;;;;;2.58;1.63;;;;;;;;;;5073895;28;20024;-65
2023/07/21 12:39:26;;;;;;;2.30;1.42;;;;;;;;;;5074508;28;20016;-65
2023/07/21 12:41:51;;;;;;;2.58;1.30;;;;;;;;;;5090022;28;20872;-66
2023/07/21 12:44:16;;;;;;;2.33;1.38;;;;;;;;;;5083707;28;20012;-64
2023/07/21 12:46:42;;;;;;;2.22;1.30;;;;;;;;;;5085951;28;20027;-65
2023/07/21 12:49:07;;;;;;;2.80;1.33;;;;;;;;;;5074249;28;20026;-64
2023/07/21 12:51:32;;;;;;;2.72;1.40;;;;;;;;;;5070262;28;20488;-65
2023/07/21 12:53:58;;;;;;;3.20;1.52;;;;;;;;;;5074101;28;20017;-66
2023/07/21 12:56:23;;;;;;;2.28;1.50;;;;;;;;;;5074321;28;20032;-67
2023/07/21 12:58:48;;;;;;;3.17;1.50;;;;;;;;;;5073760;28;20016;-67
2023/07/21 13:01:13;;;;;;;2.55;1.60;;;;;;;;;;5073464;28;20017;-67
2023/07/21 13:03:39;;;;;;;4.43;1.58;;;;;;;;;;5073305;28;20138;-66
2023/07/21 13:06:04;;;;;;;4.57;1.50;;;;;;;;;;5077195;28;20029;-66
2023/07/21 13:08:29;;;;;;;3.03;1.85;;;;;;;;;;5080618;28;20025;-67
2023/07/21 13:10:55;;;;;;;3.08;1.80;;;;;;;;;;5088262;28;20485;-66
2023/07/21 13:13:20;;;;;;;3.00;1.70;;;;;;;;;;5078118;28;20024;-66
2023/07/21 13:15:45;;;;;;;3.55;2.00;;;;;;;;;;5071533;28;20047;-66
2023/07/21 13:18:10;;;;;;;3.45;2.00;;;;;;;;;;5077203;28;20017;-65
2023/07/21 13:20:36;;;;;;;3.47;2.30;;;;;;;;;;5076268;28;20026;-66
2023/07/21 13:23:01;;;;;;;3.28;2.03;;;;;;;;;;5073122;28;20048;-66
2023/07/21 13:25:26;;;;;;;5.10;2.03;;;;;;;;;;5070624;28;20072;-67
2023/07/21 13:27:51;;;;;;;3.22;1.92;;;;;;;;;;5084008;28;20035;-66
2023/07/21 13:30:17;;;;;;;3.28;1.90;;;;;;;;;;5086769;28;20468;-67
2023/07/21 13:32:42;;;;;;;3.40;1.85;;;;;;;;;;5072466;28;20059;-70
2023/07/21 13:35:07;;;;;;;2.95;1.83;;;;;;;;;;5071958;28;20031;-67
2023/07/21 13:37:35;;;;;;;3.97;1.92;;;;;;;;;;5068273;28;20027;-67
2023/07/21 13:40:00;;;;;;;5.88;1.70;;;;;;;;;;5069660;28;20015;-67
2023/07/21 13:42:26;;;;;;;2.55;1.73;;;;;;;;;;5067266;28;20024;-67
2023/07/21 13:44:51;;;;;;;3.53;2.15;;;;;;;;;;5074773;28;20020;-68
2023/07/21 13:47:16;;;;;;;3.78;2.30;;;;;;;;;;5068490;28;20028;-66
2023/07/21 13:49:42;;;;;;;3.00;2.00;;;;;;;;;;5088238;28;20012;-67
2023/07/21 13:52:07;;;;;;;2.60;1.70;;;;;;;;;;5070615;28;20040;-67
2023/07/21 13:54:32;;;;;;;3.42;1.92;;;;;;;;;;5071845;28;20024;-67
2023/07/21 13:56:57;;;;;;;2.72;1.80;;;;;;;;;;5072668;28;20686;-67
2023/07/21 13:59:23;;;;;;;2.90;1.88;;;;;;;;;;5078702;28;20400;-70
2023/07/21 14:01:48;;;;;;;2.58;1.60;;;;;;;;;;5075307;28;20096;-70
2023/07/21 14:04:14;;;;;;;2.60;1.70;;;;;;;;;;5079110;28;20353;-67
2023/07/21 14:06:39;;;;;;;2.60;1.50;;;;;;;;;;5070996;28;21396;-67
2023/07/21 14:09:08;;;;;;;3.28;1.77;;;;;;;;;;5073301;28;20028;-69
2023/07/21 14:11:36;;;;;;;3.65;1.90;;;;;;;;;;5072734;28;20036;-70
2023/07/21 14:14:02;;;;;;;3.10;1.70;;;;;;;;;;5072576;28;20361;-69
2023/07/21 14:16:28;;;;;;;2.95;1.73;;;;;;;;;;5073656;28;20035;-67
2023/07/21 14:18:54;;;;;;;2.85;1.50;;;;;;;;;;5067257;28;20555;-67
2023/07/21 14:21:19;;;;;;;3.70;1.42;;;;;;;;;;5069037;28;20096;-67
2023/07/21 14:23:44;;;;;;;3.17;1.52;;;;;;;;;;5069881;28;20028;-68
2023/07/21 14:26:09;;;;;;;2.72;1.40;;;;;;;;;;5065552;28;20041;-71
2023/07/21 14:28:34;;;;;;;2.25;1.15;;;;;;;;;;5066486;28;20052;-67
2023/07/21 14:31:00;;;;;;;2.25;1.25;;;;;;;;;;5063900;28;20037;-68
2023/07/21 14:33:25;;;;;;;2.53;1.20;;;;;;;;;;5069170;28;20112;-68
2023/07/21 14:35:50;;;;;;;2.22;1.00;;;;;;;;;;5066215;28;20659;-70
2023/07/21 14:38:19;;;;;;;2.03;1.02;;;;;;;;;;5067837;28;20013;-72